createdAt,value
2018-02-08T00:01:03.126Z,97847.00
2018-02-08T00:03:31.103Z,97852.09
2018-02-08T00:05:58.792Z,97847.53
2018-02-08T00:08:26.568Z,97848.50
2018-02-08T00:10:54.275Z,97842.50
2018-02-08T00:13:21.954Z,97849.10
2018-02-08T00:15:49.911Z,97845.51
2018-02-08T00:18:17.588Z,97850.73
2018-02-08T00:20:45.252Z,97851.32
2018-02-08T00:23:12.948Z,97848.50
2018-02-08T00:25:41.007Z,97846.59
2018-02-08T00:28:08.699Z,97842.05
2018-02-08T00:30:36.378Z,97848.12
2018-02-08T00:33:04.278Z,97853.96
2018-02-08T00:35:31.951Z,97850.58
2018-02-08T00:37:59.634Z,97856.20
2018-02-08T00:40:27.356Z,97854.19
2018-02-08T00:42:55.019Z,97858.74
2018-02-08T00:45:22.722Z,97856.07
2018-02-08T00:47:50.400Z,97855.30
2018-02-08T00:50:18.304Z,97867.37
2018-02-08T00:52:45.973Z,97867.37
2018-02-08T00:55:13.671Z,97867.87
2018-02-08T00:57:41.371Z,97870.30
2018-02-08T01:00:09.075Z,97869.59
2018-02-08T01:02:36.773Z,97874.58
2018-02-08T01:05:04.463Z,97873.82
2018-02-08T01:07:32.311Z,97882.41
2018-02-08T01:09:59.983Z,97877.42
2018-02-08T01:12:27.659Z,97879.03
2018-02-08T01:14:55.355Z,97881.80
2018-02-08T01:17:23.033Z,97883.95
2018-02-08T01:19:50.722Z,97887.67
2018-02-08T01:22:18.385Z,97882.55
2018-02-08T01:24:46.190Z,97877.69
2018-02-08T01:27:13.858Z,97879.70
2018-02-08T01:29:41.520Z,97887.62
2018-02-08T01:32:09.205Z,97886.19
2018-02-08T01:34:36.879Z,97890.17
2018-02-08T01:37:04.572Z,97888.34
2018-02-08T01:39:32.247Z,97883.57
2018-02-08T01:42:00.248Z,97885.97
2018-02-08T01:44:27.914Z,97878.52
2018-02-08T01:46:55.583Z,97883.67
2018-02-08T01:49:34.921Z,97882.01
2018-02-08T01:52:02.603Z,97876.54
2018-02-08T01:54:30.322Z,97866.14
2018-02-08T01:56:58.011Z,97867.13
2018-02-08T01:59:25.724Z,97873.41
2018-02-08T02:01:53.409Z,97871.52
2018-02-08T02:04:21.089Z,97865.25
2018-02-08T02:06:48.786Z,97871.34
2018-02-08T02:09:16.454Z,97870.62
2018-02-08T02:11:44.148Z,97872.02
2018-02-08T02:14:11.834Z,97870.31
2018-02-08T02:16:39.562Z,97877.75
2018-02-08T02:19:07.240Z,97876.73
2018-02-08T02:21:34.897Z,97870.99
2018-02-08T02:24:02.665Z,97866.56
2018-02-08T02:26:30.339Z,97877.16
2018-02-08T02:28:58.031Z,97871.60
2018-02-08T02:31:25.713Z,97870.78
2018-02-08T02:33:53.621Z,97865.19
2018-02-08T02:36:21.294Z,97876.88
2018-02-08T02:38:48.992Z,97864.69
2018-02-08T02:41:16.687Z,97872.79
2018-02-08T02:43:44.379Z,97872.64
2018-02-08T02:46:12.092Z,97875.81
2018-02-08T02:48:39.776Z,97870.97
2018-02-08T02:51:07.483Z,97873.16
2018-02-08T02:53:35.156Z,97877.42
2018-02-08T02:56:02.825Z,97875.27
2018-02-08T02:58:30.514Z,97869.41
2018-02-08T03:00:58.179Z,97870.92
2018-02-08T03:03:25.887Z,97869.14
2018-02-08T03:05:53.559Z,97875.72
2018-02-08T03:08:21.413Z,97870.97
2018-02-08T03:10:49.087Z,97877.42
2018-02-08T03:13:16.759Z,97881.09
2018-02-08T03:15:44.463Z,97881.38
2018-02-08T03:18:12.147Z,97875.84
2018-02-08T03:20:39.836Z,97882.00
2018-02-08T03:23:07.504Z,97888.18
2018-02-08T03:25:35.345Z,97892.19
2018-02-08T03:28:03.021Z,97892.16
2018-02-08T03:30:31.538Z,97894.05
2018-02-08T03:32:59.232Z,97896.00
2018-02-08T03:35:26.906Z,97894.27
2018-02-08T03:37:54.596Z,97905.30
2018-02-08T03:40:22.288Z,97907.84
2018-02-08T03:42:50.323Z,97904.13
2018-02-08T03:45:18.006Z,97908.52
2018-02-08T03:47:45.675Z,97912.71
2018-02-08T03:50:13.367Z,97919.92
2018-02-08T03:52:41.052Z,97926.02
2018-02-08T03:55:08.745Z,97926.88
2018-02-08T03:57:36.407Z,97922.95
2018-02-08T04:00:04.375Z,97918.44
2018-02-08T04:02:32.044Z,97918.50
2018-02-08T04:04:59.711Z,97923.66
2018-02-08T04:07:27.404Z,97928.87
2018-02-08T04:09:55.067Z,97924.08
2018-02-08T04:12:22.762Z,97924.03
2018-02-08T04:14:50.450Z,97926.47
2018-02-08T04:17:18.183Z,97923.95
2018-02-08T04:19:45.853Z,97928.06
2018-02-08T04:22:13.529Z,97933.25
2018-02-08T04:24:41.300Z,97925.80
2018-02-08T04:27:08.985Z,97938.95
2018-02-08T04:29:37.022Z,97930.67
2018-02-08T04:32:04.719Z,97931.78
2018-02-08T04:34:32.383Z,97942.72
2018-02-08T04:37:00.092Z,97937.41
2018-02-08T04:39:39.279Z,97938.25
2018-02-08T04:42:18.704Z,97943.56
2018-02-08T04:44:58.105Z,97952.38
2018-02-08T04:47:34.527Z,97957.80
2018-02-08T04:50:02.197Z,97962.37
2018-02-08T04:52:29.895Z,97958.22
2018-02-08T04:54:57.573Z,97958.77
2018-02-08T04:57:25.280Z,97963.45
2018-02-08T04:59:52.935Z,97964.50
2018-02-08T05:02:20.610Z,97964.03
2018-02-08T05:04:48.300Z,97960.91
2018-02-08T05:07:15.996Z,97963.54
2018-02-08T05:09:43.679Z,97961.19
2018-02-08T05:12:11.359Z,97962.90
2018-02-08T05:14:39.043Z,97966.64
2018-02-08T05:17:06.733Z,97966.06
2018-02-08T05:19:34.406Z,97966.08
2018-02-08T05:22:02.209Z,97969.44
2018-02-08T05:24:29.875Z,97975.28
2018-02-08T05:26:57.537Z,97982.64
2018-02-08T05:29:25.250Z,97982.84
2018-02-08T05:31:52.928Z,97979.58
2018-02-08T05:34:20.643Z,97973.31
2018-02-08T05:36:48.319Z,97988.59
2018-02-08T05:39:15.996Z,97989.08
2018-02-08T05:41:43.693Z,97990.27
2018-02-08T05:44:11.370Z,97988.17
2018-02-08T05:46:39.064Z,97986.72
2018-02-08T05:49:06.732Z,97986.47
2018-02-08T05:51:34.820Z,97986.20
2018-02-08T05:54:02.491Z,97981.61
2018-02-08T05:56:30.321Z,97985.95
2018-02-08T05:58:58.028Z,97987.44
2018-02-08T06:01:25.707Z,97996.77
2018-02-08T06:03:53.395Z,97998.90
2018-02-08T06:06:21.052Z,97995.86
2018-02-08T06:08:48.967Z,97994.97
2018-02-08T06:11:16.638Z,97995.89
2018-02-08T06:13:44.328Z,97999.31
2018-02-08T06:16:12.013Z,98000.95
2018-02-08T06:18:39.680Z,97997.81
2018-02-08T06:21:07.368Z,98001.93
2018-02-08T06:23:35.037Z,98003.92
2018-02-08T06:26:02.746Z,98009.09
2018-02-08T06:28:30.413Z,98006.18
2018-02-08T06:30:58.080Z,98009.95
2018-02-08T06:33:25.795Z,98013.70
2018-02-08T06:35:53.488Z,98013.70
2018-02-08T06:38:21.193Z,98015.05
2018-02-08T06:40:48.861Z,98013.34
2018-02-08T06:43:16.849Z,98011.04
2018-02-08T06:45:44.523Z,98015.89
2018-02-08T06:48:12.198Z,98013.19
2018-02-08T06:50:39.887Z,98013.95
2018-02-08T06:53:07.581Z,98018.66
2018-02-08T06:55:35.274Z,98025.83
2018-02-08T06:58:04.421Z,98029.12
2018-02-08T07:00:32.314Z,98037.09
2018-02-08T07:03:00.059Z,98045.78
2018-02-08T07:05:27.743Z,98045.77
2018-02-08T07:07:55.441Z,98054.55
2018-02-08T07:10:23.111Z,98053.46
2018-02-08T07:12:50.836Z,98058.58
2018-02-08T07:15:18.515Z,98055.31
2018-02-08T07:17:46.231Z,98064.51
2018-02-08T07:20:14.039Z,98060.00
2018-02-08T07:22:41.721Z,98060.00
2018-02-08T07:25:09.409Z,98059.86
2018-02-08T07:27:37.075Z,98070.36
2018-02-08T07:30:04.781Z,98068.91
2018-02-08T07:32:32.465Z,98083.31
2018-02-08T07:35:00.423Z,98083.02
2018-02-08T07:37:28.108Z,98088.23
2018-02-08T07:39:55.779Z,98089.48
2018-02-08T07:42:23.484Z,98085.80
2018-02-08T07:44:51.158Z,98098.55
2018-02-08T07:47:19.047Z,98093.63
2018-02-08T07:49:46.716Z,98100.66
2018-02-08T07:52:14.537Z,98095.84
2018-02-08T07:54:42.201Z,98098.84
2018-02-08T07:57:09.872Z,98094.45
2018-02-08T07:59:37.588Z,98094.23
2018-02-08T08:02:05.269Z,98100.88
2018-02-08T08:04:32.963Z,98094.92
2018-02-08T08:07:00.630Z,98084.55
2018-02-08T08:09:28.705Z,98095.04
2018-02-08T08:11:56.374Z,98087.47
2018-02-08T08:14:24.075Z,98087.70
2018-02-08T08:16:51.776Z,98088.64
2018-02-08T08:19:19.438Z,98099.78
2018-02-08T08:21:47.148Z,98097.52
2018-02-08T08:24:14.840Z,98097.41
2018-02-08T08:26:42.695Z,98090.89
2018-02-08T08:29:10.375Z,98095.14
2018-02-08T08:31:38.046Z,98096.11
2018-02-08T08:34:05.743Z,98105.38
2018-02-08T08:36:33.413Z,98100.70
2018-02-08T08:39:01.131Z,98106.23
2018-02-08T08:41:28.821Z,98111.03
2018-02-08T08:43:56.713Z,98107.21
2018-02-08T08:46:24.409Z,98112.04
2018-02-08T08:48:52.159Z,98112.02
2018-02-08T08:51:19.864Z,98113.25
2018-02-08T08:53:47.541Z,98116.33
2018-02-08T08:56:15.231Z,98123.06
2018-02-08T08:58:42.924Z,98126.12
2018-02-08T09:01:10.631Z,98126.45
2018-02-08T09:03:38.319Z,98124.17
2018-02-08T09:06:05.988Z,98126.58
2018-02-08T09:08:33.684Z,98128.71
2018-02-08T09:11:01.371Z,98125.17
2018-02-08T09:13:29.247Z,98126.87
2018-02-08T09:15:56.923Z,98126.06
2018-02-08T09:18:24.604Z,98125.58
2018-02-08T09:20:52.287Z,98136.89
2018-02-08T09:23:20.198Z,98133.27
2018-02-08T09:25:48.094Z,98133.44
2018-02-08T09:28:15.759Z,98133.75
2018-02-08T09:30:43.439Z,98134.06
2018-02-08T09:33:11.132Z,98137.80
2018-02-08T09:35:38.806Z,98142.74
2018-02-08T09:38:06.552Z,98142.17
2018-02-08T09:40:34.209Z,98147.87
2018-02-08T09:43:01.911Z,98147.48
2018-02-08T09:45:29.575Z,98139.64
2018-02-08T09:47:57.260Z,98143.72
2018-02-08T09:50:24.948Z,98148.53
2018-02-08T09:52:52.990Z,98152.34
2018-02-08T09:55:20.674Z,98153.72
2018-02-08T09:57:48.338Z,98154.22
2018-02-08T10:00:16.073Z,98152.66
2018-02-08T10:02:43.834Z,98152.22
2018-02-08T10:05:11.511Z,98154.92
2018-02-08T10:07:39.224Z,98153.14
2018-02-08T10:10:06.904Z,98154.73
2018-02-08T10:12:34.625Z,98152.93
2018-02-08T10:15:02.300Z,98150.13
2018-02-08T10:17:30.716Z,98150.90
2018-02-08T10:19:58.397Z,98154.18
2018-02-08T10:22:26.374Z,98156.10
2018-02-08T10:24:54.073Z,98157.28
2018-02-08T10:27:21.741Z,98153.13
2018-02-08T10:29:49.434Z,98149.94
2018-02-08T10:32:17.129Z,98155.48
2018-02-08T10:34:44.939Z,98157.30
2018-02-08T10:37:12.638Z,98159.33
2018-02-08T10:39:40.312Z,98156.22
2018-02-08T10:42:08.016Z,98153.41
2018-02-08T10:44:35.841Z,98159.30
2018-02-08T10:47:03.531Z,98160.48
2018-02-08T10:49:31.212Z,98153.14
2018-02-08T10:51:59.453Z,98156.25
2018-02-08T10:54:27.484Z,98150.62
2018-02-08T10:56:55.778Z,98149.66
2018-02-08T10:59:23.468Z,98150.81
2018-02-08T11:01:51.434Z,98152.91
2018-02-08T11:04:19.611Z,98155.77
2018-02-08T11:06:47.283Z,98150.09
2018-02-08T11:09:14.992Z,98153.19
2018-02-08T11:11:42.672Z,98150.34
2018-02-08T11:14:10.340Z,98157.08
2018-02-08T11:16:38.027Z,98158.05
2018-02-08T11:19:05.705Z,98150.11
2018-02-08T11:21:33.424Z,98152.19
2018-02-08T11:24:01.407Z,98158.97
2018-02-08T11:26:29.288Z,98155.56
2018-02-08T11:28:56.965Z,98154.00
2018-02-08T11:31:24.661Z,98156.16
2018-02-08T11:33:52.346Z,98154.02
2018-02-08T11:36:20.031Z,98150.45
2018-02-08T11:38:47.728Z,98147.66
2018-02-08T11:41:15.411Z,98152.17
2018-02-08T11:43:43.298Z,98151.45
2018-02-08T11:46:10.982Z,98151.28
2018-02-08T11:48:38.731Z,98145.70
2018-02-08T11:51:06.436Z,98147.98
2018-02-08T11:53:34.480Z,98149.84
2018-02-08T11:56:02.200Z,98152.01
2018-02-08T11:58:29.879Z,98160.61
2018-02-08T12:00:58.004Z,98151.01
2018-02-08T12:03:25.692Z,98157.08
2018-02-08T12:05:53.664Z,98156.91
2018-02-08T12:08:21.551Z,98156.77
2018-02-08T12:10:49.220Z,98149.40
2018-02-08T12:13:16.993Z,98155.52
2018-02-08T12:15:44.675Z,98150.73
2018-02-08T12:18:12.378Z,98140.66
2018-02-08T12:20:40.112Z,98153.67
2018-02-08T12:23:08.067Z,98144.72
2018-02-08T12:25:35.748Z,98141.13
2018-02-08T12:28:03.423Z,98140.55
2018-02-08T12:30:31.114Z,98147.64
2018-02-08T12:32:58.817Z,98143.22
2018-02-08T12:35:26.684Z,98138.40
2018-02-08T12:37:54.348Z,98149.44
2018-02-08T12:40:22.046Z,98145.27
2018-02-08T12:42:50.326Z,98140.23
2018-02-08T12:45:18.141Z,98141.21
2018-02-08T12:47:45.839Z,98135.32
2018-02-08T12:50:13.552Z,98133.59
2018-02-08T12:52:41.855Z,98130.18
2018-02-08T12:55:09.827Z,98129.05
2018-02-08T12:57:37.502Z,98124.81
2018-02-08T13:00:05.199Z,98127.47
2018-02-08T13:02:32.898Z,98129.20
2018-02-08T13:05:00.609Z,98121.92
2018-02-08T13:07:28.286Z,98115.86
2018-02-08T13:09:55.964Z,98113.16
2018-02-08T13:12:23.657Z,98111.97
2018-02-08T13:14:51.343Z,98113.20
2018-02-08T13:17:19.167Z,98112.31
2018-02-08T13:19:46.843Z,98119.84
2018-02-08T13:22:14.933Z,98117.50
2018-02-08T13:24:42.899Z,98116.45
2018-02-08T13:27:10.579Z,98115.91
2018-02-08T13:29:38.267Z,98116.27
2018-02-08T13:32:05.950Z,98120.48
2018-02-08T13:34:33.675Z,98122.66
2018-02-08T13:37:01.383Z,98124.44
2018-02-08T13:39:31.662Z,98125.97
2018-02-08T13:42:04.919Z,98121.75
2018-02-08T13:44:32.619Z,98122.70
2018-02-08T13:47:00.315Z,98123.42
2018-02-08T13:49:28.309Z,98126.52
2018-02-08T13:52:03.446Z,98121.55
2018-02-08T13:54:36.842Z,98129.05
2018-02-08T13:57:10.034Z,98125.28
2018-02-08T13:59:40.101Z,98121.91
2018-02-08T14:02:10.819Z,98117.24
2018-02-08T14:04:39.373Z,98119.78
2018-02-08T14:07:07.348Z,98114.05
2018-02-08T14:09:35.023Z,98118.28
2018-02-08T14:12:02.757Z,98118.64
2018-02-08T14:14:30.523Z,98115.62
2018-02-08T14:16:58.181Z,98115.91
2018-02-08T14:19:25.887Z,98129.73
2018-02-08T14:21:53.575Z,98124.38
2018-02-08T14:24:21.503Z,98125.28
2018-02-08T14:26:49.182Z,98124.98
2018-02-08T14:29:17.041Z,98128.96
2018-02-08T14:31:44.745Z,98126.93
2018-02-08T14:34:12.442Z,98118.47
2018-02-08T14:36:40.136Z,98126.58
2018-02-08T14:39:07.802Z,98124.78
2018-02-08T14:41:35.491Z,98131.92
2018-02-08T14:44:03.164Z,98133.96
2018-02-08T14:46:31.117Z,98134.15
2018-02-08T14:48:58.785Z,98132.47
2018-02-08T14:51:26.474Z,98144.86
2018-02-08T14:53:54.662Z,98145.81
2018-02-08T14:56:22.327Z,98142.37
2018-02-08T14:58:51.169Z,98143.56
2018-02-08T15:01:19.911Z,98144.17
2018-02-08T15:03:48.184Z,98138.33
2018-02-08T15:06:15.892Z,98142.01
2018-02-08T15:08:43.635Z,98143.74
2018-02-08T15:11:11.350Z,98136.33
2018-02-08T15:13:39.018Z,98134.46
2018-02-08T15:16:06.735Z,98136.95
2018-02-08T15:18:34.446Z,98144.73
2018-02-08T15:21:04.510Z,98141.91
